UKV21CS KDCA-KCHS
Flight info
| Callsign | UKV21CS |
|---|---|
| Flight time | 1h 7m |
| Altitude | 38000 |
| Route | AMEEE1 SCOOB DFENC Q109 JOHAR AMYLU AMYLU3 |
| Aircraft | A320/M-SDE3FGIKRWXY/S |
Departure
| Time | 2026-04-21 18:59 |
|---|---|
| Airport | Ronald Reagan Washington National Airport (KDCA) |
Arrival
| Time | 2026-04-21 20:06 |
|---|---|
| Airport | Charleston International Airport (KCHS) |
| Time | Latitude | Longitude | Altitude | Speed | Heading |
|---|---|---|---|---|---|
| 2026-04-21 18:38 | 38.85562 | -77.04221 | 24 ft | 0 kts | 337° |
| 2026-04-21 18:51 | 38.85558 | -77.04219 | 24 ft | 3 kts | 337° |
| 2026-04-21 18:51 | 38.85534 | -77.04206 | 26 ft | 3 kts | 337° |
| 2026-04-21 18:51 | 38.85517 | -77.04199 | 27 ft | 4 kts | 32° |
| 2026-04-21 18:52 | 38.85505 | -77.04218 | 27 ft | 1 kts | 72° |
| 2026-04-21 18:52 | 38.85513 | -77.04189 | 26 ft | 4 kts | 72° |
| 2026-04-21 18:52 | 38.85521 | -77.04156 | 26 ft | 4 kts | 72° |
| 2026-04-21 18:52 | 38.85529 | -77.04122 | 26 ft | 4 kts | 72° |
| 2026-04-21 18:53 | 38.85535 | -77.04097 | 24 ft | 0 kts | 72° |
| 2026-04-21 18:56 | 38.85538 | -77.04088 | 24 ft | 5 kts | 72° |
| 2026-04-21 18:56 | 38.85551 | -77.04033 | 24 ft | 8 kts | 74° |
| 2026-04-21 18:56 | 38.85584 | -77.03963 | 25 ft | 12 kts | 17° |
| 2026-04-21 18:56 | 38.85680 | -77.03969 | 27 ft | 13 kts | 356° |
| 2026-04-21 18:57 | 38.85768 | -77.03977 | 26 ft | 12 kts | 356° |
| 2026-04-21 18:57 | 38.85850 | -77.03984 | 28 ft | 12 kts | 356° |
| 2026-04-21 18:57 | 38.85933 | -77.03983 | 24 ft | 12 kts | 9° |
| 2026-04-21 18:57 | 38.86012 | -77.03953 | 24 ft | 14 kts | 18° |
| 2026-04-21 18:58 | 38.86074 | -77.03872 | 27 ft | 13 kts | 128° |
| 2026-04-21 18:58 | 38.85980 | -77.03859 | 25 ft | 17 kts | 175° |
| 2026-04-21 18:58 | 38.85653 | -77.03824 | 28 ft | 84 kts | 175° |
| 2026-04-21 18:58 | 38.84864 | -77.03744 | 93 ft | 135 kts | 174° |
| 2026-04-21 18:59 | 38.83920 | -77.03634 | 771 ft | 137 kts | 173° |
| 2026-04-21 18:59 | 38.82971 | -77.03453 | 1469 ft | 140 kts | 173° |
| 2026-04-21 18:59 | 38.81975 | -77.03247 | 2054 ft | 154 kts | 173° |
| 2026-04-21 18:59 | 38.80841 | -77.03012 | 2458 ft | 176 kts | 172° |
| 2026-04-21 19:00 | 38.79547 | -77.02742 | 2850 ft | 201 kts | 172° |
| 2026-04-21 19:00 | 38.78087 | -77.02434 | 3423 ft | 221 kts | 172° |
| 2026-04-21 19:00 | 38.76531 | -77.02103 | 4224 ft | 232 kts | 174° |
| 2026-04-21 19:00 | 38.74920 | -77.01540 | 4816 ft | 253 kts | 155° |
| 2026-04-21 19:01 | 38.73360 | -77.00263 | 4954 ft | 273 kts | 147° |
| 2026-04-21 19:01 | 38.71794 | -76.98865 | 4981 ft | 276 kts | 146° |
| 2026-04-21 19:01 | 38.70226 | -76.97446 | 4994 ft | 276 kts | 146° |
| 2026-04-21 19:01 | 38.68661 | -76.96035 | 5496 ft | 280 kts | 146° |
| 2026-04-21 19:02 | 38.67047 | -76.94591 | 6489 ft | 286 kts | 147° |
| 2026-04-21 19:02 | 38.65389 | -76.93120 | 7342 ft | 294 kts | 146° |
| 2026-04-21 19:02 | 38.63684 | -76.91613 | 8199 ft | 302 kts | 147° |
| 2026-04-21 19:02 | 38.61937 | -76.90069 | 9051 ft | 309 kts | 146° |
| 2026-04-21 19:03 | 38.60150 | -76.88490 | 9908 ft | 316 kts | 146° |
| 2026-04-21 19:03 | 38.58288 | -76.86846 | 10420 ft | 337 kts | 146° |
| 2026-04-21 19:03 | 38.56286 | -76.85083 | 10757 ft | 362 kts | 146° |
| 2026-04-21 19:03 | 38.54144 | -76.83197 | 11041 ft | 386 kts | 145° |
| 2026-04-21 19:04 | 38.51870 | -76.81176 | 11258 ft | 410 kts | 145° |
| 2026-04-21 19:04 | 38.50268 | -76.79744 | 11486 ft | 422 kts | 145° |
| 2026-04-21 19:04 | 38.47842 | -76.77568 | 12118 ft | 429 kts | 144° |
| 2026-04-21 19:04 | 38.45388 | -76.75365 | 12833 ft | 434 kts | 145° |
| 2026-04-21 19:05 | 38.42867 | -76.73311 | 13535 ft | 438 kts | 152° |
| 2026-04-21 19:05 | 38.40066 | -76.71745 | 14203 ft | 442 kts | 162° |
| 2026-04-21 19:05 | 38.37082 | -76.70783 | 14803 ft | 444 kts | 173° |
| 2026-04-21 19:05 | 38.34013 | -76.70287 | 15388 ft | 447 kts | 175° |
| 2026-04-21 19:06 | 38.30904 | -76.69800 | 15981 ft | 452 kts | 175° |
| 2026-04-21 19:06 | 38.27764 | -76.69294 | 16561 ft | 456 kts | 175° |
| 2026-04-21 19:06 | 38.24602 | -76.68781 | 17129 ft | 461 kts | 175° |
| 2026-04-21 19:06 | 38.21406 | -76.68260 | 17691 ft | 465 kts | 175° |
| 2026-04-21 19:07 | 38.18182 | -76.67738 | 18252 ft | 469 kts | 175° |
| 2026-04-21 19:07 | 38.14924 | -76.67211 | 18787 ft | 474 kts | 175° |
| 2026-04-21 19:07 | 38.11638 | -76.66683 | 19258 ft | 477 kts | 175° |
| 2026-04-21 19:07 | 38.08332 | -76.66200 | 19743 ft | 480 kts | 177° |
| 2026-04-21 19:08 | 38.04996 | -76.65863 | 20210 ft | 482 kts | 179° |
| 2026-04-21 19:08 | 38.01638 | -76.65643 | 20672 ft | 484 kts | 181° |
| 2026-04-21 19:08 | 37.98255 | -76.65487 | 21124 ft | 487 kts | 181° |
| 2026-04-21 19:08 | 37.94856 | -76.65346 | 21585 ft | 490 kts | 181° |
| 2026-04-21 19:09 | 37.91437 | -76.65186 | 22024 ft | 493 kts | 181° |
| 2026-04-21 19:09 | 37.87999 | -76.64991 | 22454 ft | 496 kts | 180° |
| 2026-04-21 19:09 | 37.84536 | -76.64764 | 22880 ft | 499 kts | 180° |
| 2026-04-21 19:09 | 37.81058 | -76.64517 | 23286 ft | 502 kts | 180° |
| 2026-04-21 19:10 | 37.77558 | -76.64263 | 23668 ft | 505 kts | 180° |
| 2026-04-21 19:10 | 37.74034 | -76.64013 | 24030 ft | 508 kts | 180° |
| 2026-04-21 19:10 | 37.70499 | -76.63772 | 24352 ft | 510 kts | 180° |
| 2026-04-21 19:10 | 37.66949 | -76.63535 | 24676 ft | 512 kts | 180° |
| 2026-04-21 19:11 | 37.63375 | -76.63301 | 24999 ft | 515 kts | 180° |
| 2026-04-21 19:11 | 37.59844 | -76.63267 | 25301 ft | 513 kts | 187° |
| 2026-04-21 19:11 | 37.56315 | -76.63797 | 25602 ft | 510 kts | 195° |
| 2026-04-21 19:11 | 37.52837 | -76.64711 | 25970 ft | 509 kts | 196° |
| 2026-04-21 19:12 | 37.49371 | -76.65627 | 26419 ft | 508 kts | 196° |
| 2026-04-21 19:12 | 37.45914 | -76.66532 | 26876 ft | 507 kts | 196° |
| 2026-04-21 19:12 | 37.42457 | -76.67431 | 27303 ft | 506 kts | 196° |
| 2026-04-21 19:12 | 37.39013 | -76.68327 | 27749 ft | 505 kts | 196° |
| 2026-04-21 19:13 | 37.35569 | -76.69222 | 28200 ft | 504 kts | 196° |
| 2026-04-21 19:13 | 37.32135 | -76.70116 | 28663 ft | 504 kts | 196° |
| 2026-04-21 19:13 | 37.28703 | -76.71011 | 29133 ft | 503 kts | 196° |
| 2026-04-21 19:13 | 37.25276 | -76.71905 | 29589 ft | 502 kts | 196° |
| 2026-04-21 19:14 | 37.21862 | -76.72797 | 30060 ft | 501 kts | 196° |
| 2026-04-21 19:14 | 37.18450 | -76.73688 | 30499 ft | 500 kts | 197° |
| 2026-04-21 19:14 | 37.15048 | -76.74577 | 30896 ft | 499 kts | 197° |
| 2026-04-21 19:14 | 37.11652 | -76.75463 | 31299 ft | 498 kts | 197° |
| 2026-04-21 19:15 | 37.08305 | -76.76333 | 31696 ft | 497 kts | 197° |
| 2026-04-21 19:15 | 37.04919 | -76.77211 | 32090 ft | 496 kts | 196° |
| 2026-04-21 19:15 | 37.01539 | -76.78084 | 32501 ft | 495 kts | 196° |
| 2026-04-21 19:15 | 36.98122 | -76.78965 | 32902 ft | 494 kts | 196° |
| 2026-04-21 19:16 | 36.94763 | -76.79832 | 33280 ft | 493 kts | 197° |
| 2026-04-21 19:16 | 36.91400 | -76.80700 | 33701 ft | 492 kts | 197° |
| 2026-04-21 19:16 | 36.88049 | -76.81563 | 34111 ft | 491 kts | 197° |
| 2026-04-21 19:16 | 36.84751 | -76.82411 | 34492 ft | 490 kts | 197° |
| 2026-04-21 19:17 | 36.78085 | -76.84129 | 35169 ft | 488 kts | 197° |
| 2026-04-21 19:17 | 36.74764 | -76.84987 | 35524 ft | 487 kts | 197° |
| 2026-04-21 19:17 | 36.71445 | -76.85840 | 35870 ft | 486 kts | 197° |
| 2026-04-21 19:18 | 36.68128 | -76.86689 | 36198 ft | 485 kts | 197° |
| 2026-04-21 19:18 | 36.64825 | -76.87534 | 36536 ft | 484 kts | 197° |
| 2026-04-21 19:18 | 36.61511 | -76.88388 | 36691 ft | 487 kts | 197° |
| 2026-04-21 19:18 | 36.58181 | -76.89250 | 36821 ft | 491 kts | 197° |
| 2026-04-21 19:19 | 36.54822 | -76.90116 | 36961 ft | 494 kts | 197° |
| 2026-04-21 19:19 | 36.51448 | -76.90979 | 37179 ft | 495 kts | 197° |
| 2026-04-21 19:19 | 36.48073 | -76.91839 | 37422 ft | 496 kts | 197° |
| 2026-04-21 19:19 | 36.44693 | -76.92694 | 37696 ft | 495 kts | 197° |
| 2026-04-21 19:20 | 36.41315 | -76.93548 | 37976 ft | 495 kts | 197° |
| 2026-04-21 19:20 | 36.37942 | -76.94405 | 38252 ft | 494 kts | 197° |
| 2026-04-21 19:20 | 36.34571 | -76.95265 | 38382 ft | 495 kts | 197° |
| 2026-04-21 19:20 | 36.31200 | -76.96124 | 38394 ft | 494 kts | 197° |
| 2026-04-21 19:21 | 36.24461 | -76.97829 | 38395 ft | 494 kts | 197° |
| 2026-04-21 19:21 | 36.17717 | -76.99538 | 38388 ft | 495 kts | 197° |
| 2026-04-21 19:22 | 36.10976 | -77.01249 | 38392 ft | 495 kts | 197° |
| 2026-04-21 19:22 | 36.04231 | -77.02950 | 38402 ft | 495 kts | 197° |
| 2026-04-21 19:23 | 35.97519 | -77.04646 | 38401 ft | 495 kts | 198° |
| 2026-04-21 19:23 | 35.91154 | -77.07475 | 38407 ft | 479 kts | 216° |
| 2026-04-21 19:24 | 35.85792 | -77.12134 | 38405 ft | 468 kts | 226° |
| 2026-04-21 19:24 | 35.80692 | -77.17153 | 38384 ft | 469 kts | 226° |
| 2026-04-21 19:25 | 35.75583 | -77.22164 | 38400 ft | 470 kts | 226° |
| 2026-04-21 19:25 | 35.70464 | -77.27181 | 38389 ft | 470 kts | 226° |
| 2026-04-21 19:26 | 35.65348 | -77.32188 | 38396 ft | 470 kts | 226° |
| 2026-04-21 19:26 | 35.60233 | -77.37195 | 38384 ft | 469 kts | 226° |
| 2026-04-21 19:27 | 35.55124 | -77.42184 | 38388 ft | 469 kts | 226° |
| 2026-04-21 19:27 | 35.50006 | -77.47167 | 38389 ft | 469 kts | 226° |
| 2026-04-21 19:28 | 35.44918 | -77.52106 | 38407 ft | 469 kts | 226° |
| 2026-04-21 19:28 | 35.39801 | -77.57073 | 38404 ft | 469 kts | 226° |
| 2026-04-21 19:29 | 35.34685 | -77.62036 | 38404 ft | 469 kts | 226° |
| 2026-04-21 19:29 | 35.29560 | -77.66984 | 38402 ft | 469 kts | 226° |
| 2026-04-21 19:30 | 35.24438 | -77.71927 | 38403 ft | 469 kts | 226° |
| 2026-04-21 19:30 | 35.19323 | -77.76871 | 38412 ft | 469 kts | 226° |
| 2026-04-21 19:31 | 35.14190 | -77.81816 | 38402 ft | 470 kts | 226° |
| 2026-04-21 19:31 | 35.09084 | -77.86726 | 38398 ft | 470 kts | 226° |
| 2026-04-21 19:32 | 35.03905 | -77.91689 | 38399 ft | 470 kts | 226° |
| 2026-04-21 19:32 | 34.98797 | -77.96582 | 38387 ft | 470 kts | 226° |
| 2026-04-21 19:33 | 34.93658 | -78.01499 | 38397 ft | 469 kts | 226° |
| 2026-04-21 19:33 | 34.88488 | -78.06429 | 38378 ft | 468 kts | 226° |
| 2026-04-21 19:34 | 34.83400 | -78.11285 | 38385 ft | 468 kts | 226° |
| 2026-04-21 19:34 | 34.78289 | -78.16174 | 38387 ft | 467 kts | 226° |
| 2026-04-21 19:35 | 34.70615 | -78.23506 | 38391 ft | 468 kts | 226° |
| 2026-04-21 19:36 | 34.65497 | -78.28387 | 38365 ft | 468 kts | 226° |
| 2026-04-21 19:36 | 34.60379 | -78.33258 | 38375 ft | 467 kts | 226° |
| 2026-04-21 19:37 | 34.55263 | -78.38117 | 38396 ft | 467 kts | 226° |
| 2026-04-21 19:37 | 34.50146 | -78.42969 | 38392 ft | 467 kts | 226° |
| 2026-04-21 19:38 | 34.45029 | -78.47823 | 38388 ft | 467 kts | 226° |
| 2026-04-21 19:38 | 34.40777 | -78.51847 | 38372 ft | 466 kts | 226° |
| 2026-04-21 19:38 | 34.37396 | -78.55033 | 37946 ft | 457 kts | 226° |
| 2026-04-21 19:39 | 34.34899 | -78.57380 | 37627 ft | 453 kts | 226° |
| 2026-04-21 19:39 | 34.32469 | -78.59776 | 37360 ft | 444 kts | 231° |
| 2026-04-21 19:39 | 34.30305 | -78.62359 | 37100 ft | 433 kts | 233° |
| 2026-04-21 19:39 | 34.28185 | -78.64913 | 36838 ft | 428 kts | 233° |
| 2026-04-21 19:40 | 34.26076 | -78.67447 | 36581 ft | 426 kts | 233° |
| 2026-04-21 19:40 | 34.23984 | -78.69956 | 36319 ft | 423 kts | 233° |
| 2026-04-21 19:40 | 34.21901 | -78.72452 | 36070 ft | 421 kts | 233° |
| 2026-04-21 19:40 | 34.19825 | -78.74936 | 35785 ft | 418 kts | 233° |
| 2026-04-21 19:41 | 34.17763 | -78.77399 | 35525 ft | 416 kts | 233° |
| 2026-04-21 19:41 | 34.15714 | -78.79847 | 35282 ft | 414 kts | 233° |
| 2026-04-21 19:41 | 34.13698 | -78.82256 | 35043 ft | 412 kts | 233° |
| 2026-04-21 19:41 | 34.11669 | -78.84680 | 34805 ft | 411 kts | 233° |
| 2026-04-21 19:42 | 34.09642 | -78.87104 | 34567 ft | 409 kts | 233° |
| 2026-04-21 19:42 | 34.07626 | -78.89517 | 34318 ft | 407 kts | 233° |
| 2026-04-21 19:42 | 34.05617 | -78.91920 | 34049 ft | 406 kts | 233° |
| 2026-04-21 19:42 | 34.03614 | -78.94311 | 33788 ft | 404 kts | 233° |
| 2026-04-21 19:43 | 34.01615 | -78.96694 | 33516 ft | 403 kts | 233° |
| 2026-04-21 19:43 | 33.99624 | -78.99061 | 33247 ft | 402 kts | 233° |
| 2026-04-21 19:43 | 33.97630 | -79.01429 | 32682 ft | 404 kts | 233° |
| 2026-04-21 19:43 | 33.95616 | -79.03827 | 32048 ft | 406 kts | 233° |
| 2026-04-21 19:44 | 33.93624 | -79.06190 | 31643 ft | 401 kts | 233° |
| 2026-04-21 19:44 | 33.91643 | -79.08539 | 31202 ft | 398 kts | 233° |
| 2026-04-21 19:44 | 33.89677 | -79.10868 | 30752 ft | 395 kts | 233° |
| 2026-04-21 19:44 | 33.87721 | -79.13185 | 30283 ft | 393 kts | 233° |
| 2026-04-21 19:45 | 33.85777 | -79.15488 | 29756 ft | 391 kts | 233° |
| 2026-04-21 19:45 | 33.83843 | -79.17775 | 29251 ft | 389 kts | 233° |
| 2026-04-21 19:45 | 33.81920 | -79.20048 | 28757 ft | 386 kts | 233° |
| 2026-04-21 19:45 | 33.80031 | -79.22274 | 28283 ft | 385 kts | 232° |
| 2026-04-21 19:46 | 33.77962 | -79.24345 | 27806 ft | 390 kts | 223° |
| 2026-04-21 19:46 | 33.75676 | -79.26122 | 27330 ft | 391 kts | 220° |
| 2026-04-21 19:46 | 33.73374 | -79.27857 | 26865 ft | 389 kts | 220° |
| 2026-04-21 19:46 | 33.71087 | -79.29583 | 26408 ft | 388 kts | 220° |
| 2026-04-21 19:47 | 33.68806 | -79.31301 | 25964 ft | 386 kts | 220° |
| 2026-04-21 19:47 | 33.66536 | -79.33009 | 25530 ft | 384 kts | 220° |
| 2026-04-21 19:47 | 33.64277 | -79.34709 | 25105 ft | 382 kts | 220° |
| 2026-04-21 19:47 | 33.62032 | -79.36402 | 24685 ft | 380 kts | 220° |
| 2026-04-21 19:48 | 33.59797 | -79.38088 | 24273 ft | 379 kts | 219° |
| 2026-04-21 19:48 | 33.57569 | -79.39768 | 23854 ft | 377 kts | 219° |
| 2026-04-21 19:48 | 33.55353 | -79.41438 | 23383 ft | 375 kts | 219° |
| 2026-04-21 19:48 | 33.53147 | -79.43098 | 22914 ft | 373 kts | 219° |
| 2026-04-21 19:49 | 33.50951 | -79.44748 | 22491 ft | 371 kts | 219° |
| 2026-04-21 19:49 | 33.48773 | -79.46384 | 22066 ft | 368 kts | 219° |
| 2026-04-21 19:49 | 33.46608 | -79.48010 | 21647 ft | 366 kts | 219° |
| 2026-04-21 19:49 | 33.44460 | -79.49629 | 21222 ft | 364 kts | 218° |
| 2026-04-21 19:50 | 33.43043 | -79.50697 | 20942 ft | 363 kts | 218° |
| 2026-04-21 19:50 | 33.40217 | -79.52819 | 20391 ft | 360 kts | 218° |
| 2026-04-21 19:50 | 33.38098 | -79.54409 | 19988 ft | 359 kts | 218° |
| 2026-04-21 19:50 | 33.35986 | -79.55991 | 19592 ft | 357 kts | 218° |
| 2026-04-21 19:51 | 33.33887 | -79.57564 | 19203 ft | 355 kts | 218° |
| 2026-04-21 19:51 | 33.31802 | -79.59140 | 18827 ft | 354 kts | 218° |
| 2026-04-21 19:51 | 33.29725 | -79.60717 | 18426 ft | 352 kts | 218° |
| 2026-04-21 19:51 | 33.27661 | -79.62286 | 18018 ft | 351 kts | 218° |
| 2026-04-21 19:52 | 33.25608 | -79.63844 | 17621 ft | 349 kts | 217° |
| 2026-04-21 19:52 | 33.23563 | -79.65396 | 17225 ft | 347 kts | 217° |
| 2026-04-21 19:52 | 33.22255 | -79.66477 | 16966 ft | 343 kts | 225° |
| 2026-04-21 19:52 | 33.20634 | -79.68498 | 16598 ft | 333 kts | 240° |
| 2026-04-21 19:53 | 33.19488 | -79.70855 | 16221 ft | 326 kts | 249° |
| 2026-04-21 19:53 | 33.18468 | -79.73274 | 15849 ft | 326 kts | 249° |
| 2026-04-21 19:53 | 33.17446 | -79.75678 | 15494 ft | 325 kts | 248° |
| 2026-04-21 19:53 | 33.16419 | -79.78079 | 15143 ft | 324 kts | 248° |
| 2026-04-21 19:54 | 33.15397 | -79.80468 | 14791 ft | 323 kts | 248° |
| 2026-04-21 19:54 | 33.14376 | -79.82857 | 14450 ft | 322 kts | 248° |
| 2026-04-21 19:54 | 33.13357 | -79.85238 | 14104 ft | 322 kts | 248° |
| 2026-04-21 19:54 | 33.12340 | -79.87611 | 13731 ft | 321 kts | 247° |
| 2026-04-21 19:55 | 33.11326 | -79.89978 | 13364 ft | 319 kts | 247° |
| 2026-04-21 19:55 | 33.10322 | -79.92329 | 13006 ft | 317 kts | 247° |
| 2026-04-21 19:55 | 33.09318 | -79.94675 | 12492 ft | 320 kts | 247° |
| 2026-04-21 19:55 | 33.08285 | -79.97093 | 11622 ft | 335 kts | 246° |
| 2026-04-21 19:56 | 33.07211 | -79.99616 | 10745 ft | 347 kts | 246° |
| 2026-04-21 19:56 | 33.06019 | -80.02169 | 9812 ft | 359 kts | 236° |
| 2026-04-21 19:56 | 33.04204 | -80.04280 | 8809 ft | 370 kts | 220° |
| 2026-04-21 19:56 | 33.02193 | -80.06164 | 7820 ft | 376 kts | 219° |
| 2026-04-21 19:57 | 33.00081 | -80.08035 | 6841 ft | 381 kts | 213° |
| 2026-04-21 19:57 | 32.97583 | -80.09109 | 5803 ft | 386 kts | 187° |
| 2026-04-21 19:57 | 32.94945 | -80.08811 | 5060 ft | 379 kts | 161° |
| 2026-04-21 19:57 | 32.92657 | -80.07490 | 4116 ft | 356 kts | 144° |
| 2026-04-21 19:58 | 32.90758 | -80.05745 | 3364 ft | 332 kts | 137° |
| 2026-04-21 19:58 | 32.89088 | -80.04050 | 3125 ft | 299 kts | 138° |
| 2026-04-21 19:58 | 32.87584 | -80.02537 | 3003 ft | 268 kts | 138° |
| 2026-04-21 19:58 | 32.86389 | -80.01039 | 3000 ft | 233 kts | 117° |
| 2026-04-21 19:59 | 32.86047 | -79.99321 | 3005 ft | 204 kts | 82° |
| 2026-04-21 19:59 | 32.86480 | -79.97761 | 3009 ft | 200 kts | 65° |
| 2026-04-21 19:59 | 32.87233 | -79.96394 | 3010 ft | 199 kts | 41° |
| 2026-04-21 19:59 | 32.88505 | -79.95779 | 3021 ft | 206 kts | 5° |
| 2026-04-21 20:00 | 32.89872 | -79.96191 | 2999 ft | 209 kts | 331° |
| 2026-04-21 20:00 | 32.91054 | -79.97218 | 2742 ft | 212 kts | 322° |
| 2026-04-21 20:00 | 32.92218 | -79.98294 | 2469 ft | 211 kts | 335° |
| 2026-04-21 20:00 | 32.93475 | -79.99071 | 2355 ft | 195 kts | 337° |
| 2026-04-21 20:01 | 32.94626 | -79.99846 | 2060 ft | 188 kts | 331° |
| 2026-04-21 20:01 | 32.95747 | -80.00664 | 1643 ft | 189 kts | 334° |
| 2026-04-21 20:01 | 32.96848 | -80.01488 | 1598 ft | 187 kts | 332° |
| 2026-04-21 20:01 | 32.97962 | -80.02316 | 1598 ft | 191 kts | 332° |
| 2026-04-21 20:02 | 32.99084 | -80.03169 | 1599 ft | 192 kts | 333° |
| 2026-04-21 20:02 | 33.00206 | -80.03996 | 1606 ft | 189 kts | 331° |
| 2026-04-21 20:02 | 33.01174 | -80.04953 | 1613 ft | 179 kts | 305° |
| 2026-04-21 20:02 | 33.01452 | -80.06383 | 1592 ft | 180 kts | 269° |
| 2026-04-21 20:03 | 33.01305 | -80.07859 | 1610 ft | 177 kts | 249° |
| 2026-04-21 20:03 | 33.00616 | -80.09060 | 1610 ft | 175 kts | 220° |
| 2026-04-21 20:03 | 32.99582 | -80.09763 | 1600 ft | 170 kts | 191° |
| 2026-04-21 20:03 | 32.98430 | -80.09879 | 1573 ft | 167 kts | 168° |
| 2026-04-21 20:04 | 32.97370 | -80.09422 | 1436 ft | 160 kts | 144° |
| 2026-04-21 20:04 | 32.96434 | -80.08712 | 1261 ft | 158 kts | 142° |
| 2026-04-21 20:04 | 32.95511 | -80.08008 | 1067 ft | 153 kts | 141° |
| 2026-04-21 20:04 | 32.94670 | -80.07373 | 862 ft | 136 kts | 141° |
| 2026-04-21 20:05 | 32.93897 | -80.06786 | 693 ft | 131 kts | 142° |
| 2026-04-21 20:05 | 32.93137 | -80.06208 | 524 ft | 130 kts | 139° |
| 2026-04-21 20:05 | 32.92370 | -80.05626 | 353 ft | 130 kts | 140° |
| 2026-04-21 20:05 | 32.91621 | -80.05057 | 178 ft | 127 kts | 143° |
| 2026-04-21 20:06 | 32.90887 | -80.04501 | 64 ft | 116 kts | 147° |
| 2026-04-21 20:06 | 32.90340 | -80.04084 | 53 ft | 69 kts | 147° |
| 2026-04-21 20:06 | 32.89999 | -80.03822 | 53 ft | 51 kts | 146° |
| 2026-04-21 20:06 | 32.89753 | -80.03633 | 50 ft | 35 kts | 150° |
| 2026-04-21 20:07 | 32.89524 | -80.03581 | 46 ft | 25 kts | 181° |
| 2026-04-21 20:07 | 32.89343 | -80.03588 | 47 ft | 27 kts | 181° |
| 2026-04-21 20:07 | 32.89159 | -80.03597 | 47 ft | 23 kts | 181° |
| 2026-04-21 20:07 | 32.89003 | -80.03603 | 45 ft | 22 kts | 186° |
| 2026-04-21 20:08 | 32.88839 | -80.03629 | 39 ft | 21 kts | 188° |
| 2026-04-21 20:08 | 32.88749 | -80.03644 | 38 ft | 8 kts | 188° |
| 2026-04-21 20:08 | 32.88681 | -80.03656 | 39 ft | 10 kts | 188° |
| 2026-04-21 20:08 | 32.88603 | -80.03669 | 38 ft | 4 kts | 188° |
| 2026-04-21 20:09 | 32.88580 | -80.03669 | 38 ft | 3 kts | 167° |
| 2026-04-21 20:09 | 32.88550 | -80.03647 | 37 ft | 2 kts | 144° |
| 2026-04-21 20:09 | 32.88539 | -80.03638 | 37 ft | 0 kts | 144° |